createdAt,value
2023-03-23T15:58:45.262Z,99223.23
2023-03-23T16:01:18.431Z,99224.67
2023-03-23T16:04:04.719Z,99224.61
2023-03-23T16:06:36.267Z,99223.73
2023-03-23T16:09:04.607Z,99226.70
2023-03-23T16:11:33.787Z,99222.08
2023-03-23T16:14:02.345Z,99219.35
2023-03-23T16:16:34.887Z,99223.08
2023-03-23T16:19:05.606Z,99225.20
2023-03-23T16:21:33.792Z,99227.44
2023-03-23T16:24:01.809Z,99232.59
2023-03-23T16:26:30.048Z,99236.09
2023-03-23T16:29:09.963Z,99235.98
2023-03-23T16:31:44.934Z,99229.54
2023-03-23T16:34:12.900Z,99227.10
2023-03-23T16:36:41.076Z,99233.48
2023-03-23T16:39:10.832Z,99229.30
2023-03-23T16:41:39.085Z,99231.73
2023-03-23T16:44:14.632Z,99233.86
2023-03-23T16:46:43.156Z,99235.09
2023-03-23T16:49:11.389Z,99236.99
2023-03-23T16:51:42.948Z,99234.31
2023-03-23T16:54:11.106Z,99229.53
2023-03-23T16:56:49.782Z,99231.83
2023-03-23T16:59:18.228Z,99234.33
2023-03-23T17:01:46.262Z,99236.48
2023-03-23T17:04:15.827Z,99234.07
2023-03-23T17:06:44.179Z,99232.98
2023-03-23T17:09:12.222Z,99232.34
2023-03-23T17:11:43.724Z,99232.98
2023-03-23T17:14:11.793Z,99233.77
2023-03-23T17:16:41.597Z,99238.88
2023-03-23T17:19:10.616Z,99237.02
2023-03-23T17:21:38.735Z,99231.62
2023-03-23T17:24:11.424Z,99232.99
2023-03-23T17:26:40.666Z,99235.27
2023-03-23T17:29:08.687Z,99235.46
2023-03-23T17:31:37.334Z,99234.62
2023-03-23T17:34:05.710Z,99230.23
2023-03-23T17:36:33.702Z,99231.69
2023-03-23T17:39:01.819Z,99230.98
2023-03-23T17:41:30.121Z,99230.92
2023-03-23T17:44:04.448Z,99231.84
2023-03-23T17:46:37.579Z,99233.04
2023-03-23T17:49:06.106Z,99233.86
2023-03-23T17:51:36.536Z,99235.84
2023-03-23T17:54:04.387Z,99233.60
2023-03-23T17:56:34.672Z,99232.73
2023-03-23T17:59:02.824Z,99234.76
2023-03-23T18:01:30.925Z,99232.73
2023-03-23T18:04:00.036Z,99232.42
2023-03-23T18:06:27.990Z,99232.84
2023-03-23T18:08:56.131Z,99228.36
2023-03-23T18:11:24.622Z,99225.23
2023-03-23T18:13:52.789Z,99230.04
2023-03-23T18:16:26.678Z,99230.80
2023-03-23T18:18:56.528Z,99224.06
2023-03-23T18:21:26.147Z,99225.63
2023-03-23T18:23:59.540Z,99226.69
2023-03-23T18:26:29.211Z,99229.23
2023-03-23T18:28:57.564Z,99228.44
2023-03-23T18:31:25.749Z,99227.84
2023-03-23T18:33:55.369Z,99229.27
2023-03-23T18:36:24.426Z,99231.98
2023-03-23T18:38:54.498Z,99230.48
2023-03-23T18:41:22.650Z,99233.06
2023-03-23T18:43:51.321Z,99230.87
2023-03-23T18:46:20.132Z,99227.24
2023-03-23T18:48:48.643Z,99223.11
2023-03-23T18:51:19.831Z,99222.03
2023-03-23T18:53:47.861Z,99223.60
2023-03-23T18:56:16.246Z,99222.13
2023-03-23T18:58:44.828Z,99218.59
2023-03-23T19:01:14.253Z,99216.80
2023-03-23T19:03:42.584Z,99214.67
2023-03-23T19:06:20.411Z,99218.81
2023-03-23T19:08:48.740Z,99211.33
2023-03-23T19:11:17.103Z,99209.81
2023-03-23T19:13:58.327Z,99206.77
2023-03-23T19:16:31.400Z,99211.02
2023-03-23T19:19:01.550Z,99213.73
2023-03-23T19:21:31.978Z,99214.61
2023-03-23T19:24:01.440Z,99214.39
2023-03-23T19:26:34.833Z,99213.90
2023-03-23T19:29:25.219Z,99217.17
2023-03-23T19:31:53.581Z,99216.15
2023-03-23T19:34:25.391Z,99217.32
2023-03-23T19:36:56.205Z,99213.58
2023-03-23T19:39:32.577Z,99213.03
2023-03-23T19:42:00.921Z,99214.75
2023-03-23T19:44:29.487Z,99207.48
2023-03-23T19:46:58.090Z,99205.83
2023-03-23T19:49:26.814Z,99204.00
2023-03-23T19:52:08.339Z,99206.08
2023-03-23T19:54:39.421Z,99205.71
2023-03-23T19:57:10.119Z,99207.86
2023-03-23T19:59:38.412Z,99210.41
2023-03-23T20:02:07.123Z,99209.36
2023-03-23T20:04:36.018Z,99207.28
2023-03-23T20:07:07.368Z,99205.00
2023-03-23T20:09:36.851Z,99201.27
2023-03-23T20:12:06.477Z,99199.03
2023-03-23T20:14:35.506Z,99200.40
2023-03-23T20:17:05.481Z,99201.89
2023-03-23T20:19:37.003Z,99200.33
2023-03-23T20:22:05.328Z,99200.23
2023-03-23T20:24:33.279Z,99202.47
2023-03-23T20:27:03.339Z,99199.98
2023-03-23T20:29:33.484Z,99193.05
2023-03-23T20:32:02.337Z,99194.52
2023-03-23T20:34:31.445Z,99189.54
2023-03-23T20:37:00.422Z,99191.21
2023-03-23T20:39:33.350Z,99180.46
2023-03-23T20:42:05.969Z,99182.88
2023-03-23T20:44:39.727Z,99184.48
2023-03-23T20:47:08.814Z,99182.13
2023-03-23T20:49:37.579Z,99181.98
2023-03-23T20:52:14.884Z,99186.98
2023-03-23T20:54:45.830Z,99180.12
2023-03-23T20:57:14.674Z,99177.75
2023-03-23T20:59:43.095Z,99172.27
2023-03-23T21:02:12.799Z,99175.36
2023-03-23T21:04:42.523Z,99176.23
2023-03-23T21:07:12.932Z,99175.74
2023-03-23T21:09:41.232Z,99173.34
2023-03-23T21:12:12.365Z,99172.48
2023-03-23T21:14:44.552Z,99166.92
2023-03-23T21:17:12.654Z,99167.65
2023-03-23T21:19:48.185Z,99167.77
2023-03-23T21:22:18.883Z,99168.25
2023-03-23T21:24:46.794Z,99172.41
2023-03-23T21:27:15.662Z,99168.48
2023-03-23T21:29:45.188Z,99168.72
2023-03-23T21:32:13.620Z,99172.05
2023-03-23T21:34:43.804Z,99170.33
2023-03-23T21:37:12.389Z,99173.39
2023-03-23T21:39:44.306Z,99169.91
2023-03-23T21:42:15.924Z,99169.55
2023-03-23T21:44:43.797Z,99166.61
2023-03-23T21:47:12.933Z,99170.52
2023-03-23T21:49:41.422Z,99172.14
2023-03-23T21:52:09.580Z,99170.02
2023-03-23T21:54:39.144Z,99167.23
2023-03-23T21:57:07.695Z,99167.45
2023-03-23T21:59:35.957Z,99167.73
2023-03-23T22:02:04.090Z,99167.17
2023-03-23T22:04:32.239Z,99168.77
2023-03-23T22:07:04.122Z,99165.98
2023-03-23T22:09:34.519Z,99162.46
2023-03-23T22:12:02.598Z,99167.42
2023-03-23T22:14:36.186Z,99167.71
2023-03-23T22:17:04.679Z,99168.31
2023-03-23T22:19:33.325Z,99167.07
2023-03-23T22:22:04.287Z,99170.83
2023-03-23T22:24:32.383Z,99167.86
2023-03-23T22:27:00.926Z,99173.02
2023-03-23T22:29:29.221Z,99170.02
2023-03-23T22:31:57.258Z,99170.02
2023-03-23T22:34:25.402Z,99169.52
2023-03-23T22:36:53.404Z,99170.67
2023-03-23T22:39:21.417Z,99165.01
2023-03-23T22:41:53.184Z,99168.13
2023-03-23T22:44:21.361Z,99172.20
2023-03-23T22:46:49.397Z,99176.04
2023-03-23T22:49:18.884Z,99175.09
2023-03-23T22:51:47.314Z,99179.73
2023-03-23T22:54:15.860Z,99182.34
2023-03-23T22:56:44.349Z,99183.76
2023-03-23T22:59:12.470Z,99178.83
2023-03-23T23:01:41.121Z,99177.91
2023-03-23T23:04:09.340Z,99176.63
2023-03-23T23:06:37.514Z,99171.55
2023-03-23T23:09:05.509Z,99174.85
2023-03-23T23:11:34.020Z,99166.26
2023-03-23T23:14:06.222Z,99161.23
2023-03-23T23:16:35.710Z,99158.49
2023-03-23T23:19:04.932Z,99161.09
2023-03-23T23:21:39.049Z,99153.04
2023-03-23T23:24:07.691Z,99152.47
2023-03-23T23:26:36.754Z,99154.77
2023-03-23T23:29:05.353Z,99150.27
2023-03-23T23:31:34.890Z,99153.33
2023-03-23T23:34:03.209Z,99153.96
2023-03-23T23:36:32.534Z,99155.61
2023-03-23T23:39:01.236Z,99163.76
2023-03-23T23:41:33.688Z,99161.73
2023-03-23T23:44:02.040Z,99159.09
2023-03-23T23:46:33.448Z,99150.09
2023-03-23T23:49:04.336Z,99147.70
2023-03-23T23:51:33.894Z,99148.43
2023-03-23T23:54:02.965Z,99141.23
2023-03-23T23:56:31.646Z,99138.75
2023-03-23T23:59:00.016Z,99136.45
